Aviation Digital Data Service (ADDS)

Output produced by METARs form (1242 UTC 22 February 2018)
found at http://www.aviationweather.gov/adds/metars/
 
LQBK 221230Z 07005KT 9999 FEW013 BKN030 02/01 Q1011 R17/D NOSIG
TAF COR LQBK 221100Z 2212/2312 03006KT 3000 -SN BR BKN010 OVC020 TX02/2213Z TNM01/2306Z 
     TEMPO 2212/2218 6000 SCT007 OVC020 
     TEMPO 2218/2312 1500 SN BKN005 OVC015 
     PROB30 
     TEMPO 2220/2308 0500 +SN OVC002
       
LQMO 221200Z 36004KT 320V080 9999 FEW022 BKN041 10/05 Q1005
TAF LQMO 221100Z 2212/2312 01007KT 9999 SCT040 BKN050 TX09/2212Z TN04/2306Z 
     PROB30 
     TEMPO 2212/2216 SHRA FEW010 FEW035TCU BKN040 
     TEMPO 2218/2312 4000 RA BKN015 OVC030
       
LQSA 221230Z VRB02KT 2000 SN SCT006 BKN015 OVC030 02/01 Q1008 NOSIG
TAF LQSA 221100Z 2212/2312 30006KT 4000 -SN SCT010 BKN030 TX04/2213Z TNM01/2304Z 
     TEMPO 2212/2216 6000 NSW 
     TEMPO 2218/2224 2000 SN BKN008 OVC018 
     BECMG 2310/2312 9999 NSW
       
LQTZ 221230Z VRB01KT 9999 BKN010 OVC025 02/01 Q1010
TAF LQTZ 221100Z 2212/2312 10005KT 6000 SCT010 BKN025 TX03/2212Z TNM00/2306Z 
     TEMPO 2215/2312 2000 -SN BR BKN007 OVC017 
     PROB40 
     TEMPO 2219/2308 0600 SN OVC002